createdAt,value
2017-04-27T00:00:09.005Z,2.80
2017-04-27T00:02:36.055Z,2.80
2017-04-27T00:05:03.130Z,2.70
2017-04-27T00:07:30.156Z,2.70
2017-04-27T00:09:57.213Z,2.70
2017-04-27T00:12:24.284Z,2.80
2017-04-27T00:14:51.302Z,2.80
2017-04-27T00:17:18.393Z,2.70
2017-04-27T00:19:46.149Z,2.70
2017-04-27T00:22:13.926Z,2.70
2017-04-27T00:24:41.010Z,2.70
2017-04-27T00:27:08.049Z,2.70
2017-04-27T00:29:35.067Z,2.70
2017-04-27T00:32:02.932Z,2.60
2017-04-27T00:34:30.760Z,2.50
2017-04-27T00:36:57.795Z,2.50
2017-04-27T00:39:24.876Z,2.50
2017-04-27T00:41:51.910Z,2.40
2017-04-27T00:44:18.994Z,2.40
2017-04-27T00:46:46.837Z,2.40
2017-04-27T00:49:13.861Z,2.50
2017-04-27T00:51:40.883Z,2.40
2017-04-27T00:54:07.975Z,2.30
2017-04-27T00:56:35.001Z,2.20
2017-04-27T00:59:02.017Z,2.20
2017-04-27T01:01:29.067Z,2.20
2017-04-27T01:03:56.121Z,2.10
2017-04-27T01:06:23.185Z,2.10
2017-04-27T01:08:50.236Z,2.10
2017-04-27T01:11:17.275Z,2.10
2017-04-27T01:13:44.332Z,2.10
2017-04-27T01:16:11.397Z,2.10
2017-04-27T01:18:38.422Z,2.00
2017-04-27T01:21:05.442Z,2.00
2017-04-27T01:23:32.508Z,1.90
2017-04-27T01:25:59.535Z,1.90
2017-04-27T01:28:27.100Z,1.80
2017-04-27T01:30:54.127Z,1.80
2017-04-27T01:33:21.146Z,1.70
2017-04-27T01:35:48.141Z,1.70
2017-04-27T01:38:15.802Z,1.70
2017-04-27T01:40:42.808Z,1.80
2017-04-27T01:43:10.570Z,1.90
2017-04-27T01:45:38.379Z,1.90
2017-04-27T01:48:05.389Z,2.00
2017-04-27T01:50:33.781Z,1.90
2017-04-27T01:53:00.847Z,1.90
2017-04-27T01:55:27.869Z,2.00
2017-04-27T01:57:54.854Z,2.00
2017-04-27T02:00:21.942Z,2.00
2017-04-27T02:02:49.697Z,2.00
2017-04-27T02:05:16.718Z,2.10
2017-04-27T02:07:43.800Z,2.00
2017-04-27T02:10:10.804Z,1.90
2017-04-27T02:12:37.828Z,2.00
2017-04-27T02:15:04.907Z,1.90
2017-04-27T02:17:31.971Z,1.80
2017-04-27T02:19:59.017Z,1.80
2017-04-27T02:22:26.093Z,1.80
2017-04-27T02:24:53.072Z,1.80
2017-04-27T02:27:20.104Z,1.80
2017-04-27T02:29:47.139Z,1.90
2017-04-27T02:32:14.923Z,1.70
2017-04-27T02:34:41.960Z,1.60
2017-04-27T02:37:08.972Z,1.70
2017-04-27T02:39:36.024Z,1.60
2017-04-27T02:42:03.036Z,1.50
2017-04-27T02:44:30.109Z,1.50
2017-04-27T02:46:57.163Z,1.60
2017-04-27T02:49:24.161Z,1.60
2017-04-27T02:51:51.310Z,1.60
2017-04-27T02:54:18.327Z,1.60
2017-04-27T02:56:46.081Z,1.60
2017-04-27T02:59:13.859Z,1.60
2017-04-27T03:01:41.639Z,1.60
2017-04-27T03:04:08.659Z,1.70
2017-04-27T03:06:35.746Z,1.60
2017-04-27T03:09:02.826Z,1.50
2017-04-27T03:11:29.853Z,1.50
2017-04-27T03:13:56.851Z,1.50
2017-04-27T03:16:24.627Z,1.40
2017-04-27T03:18:51.710Z,1.50
2017-04-27T03:21:18.734Z,1.50
2017-04-27T03:23:45.757Z,1.40
2017-04-27T03:26:13.561Z,1.40
2017-04-27T03:28:40.579Z,1.50
2017-04-27T03:31:07.899Z,1.50
2017-04-27T03:33:34.935Z,1.50
2017-04-27T03:36:01.989Z,1.50
2017-04-27T03:38:29.003Z,1.50
2017-04-27T03:40:56.039Z,1.40
2017-04-27T03:43:23.082Z,1.40
2017-04-27T03:45:50.096Z,1.40
2017-04-27T03:48:17.901Z,1.30
2017-04-27T03:50:44.926Z,1.20
2017-04-27T03:53:11.997Z,1.30
2017-04-27T03:55:39.033Z,1.40
2017-04-27T03:58:06.077Z,1.50
2017-04-27T04:00:33.083Z,1.60
2017-04-27T04:03:00.065Z,1.60
2017-04-27T04:05:27.114Z,1.40
2017-04-27T04:07:54.104Z,1.30
2017-04-27T04:10:21.090Z,1.30
2017-04-27T04:12:48.116Z,1.40
2017-04-27T04:15:15.141Z,1.20
2017-04-27T04:17:42.141Z,1.20
2017-04-27T04:20:09.209Z,1.30
2017-04-27T04:22:36.250Z,1.40
2017-04-27T04:25:03.287Z,1.40
2017-04-27T04:27:30.825Z,1.30
2017-04-27T04:29:58.630Z,1.20
2017-04-27T04:32:25.611Z,1.30
2017-04-27T04:34:52.645Z,1.20
2017-04-27T04:37:19.743Z,1.20
2017-04-27T04:39:46.819Z,1.20
2017-04-27T04:42:13.848Z,1.20
2017-04-27T04:44:40.847Z,1.20
2017-04-27T04:47:07.910Z,1.40
2017-04-27T04:49:35.661Z,1.40
2017-04-27T04:52:05.638Z,1.50
2017-04-27T04:54:32.677Z,1.50
2017-04-27T04:56:59.719Z,1.50
2017-04-27T04:59:26.801Z,1.40
2017-04-27T05:01:53.862Z,1.60
2017-04-27T05:04:28.982Z,1.50
2017-04-27T05:06:55.999Z,1.50
2017-04-27T05:09:23.012Z,1.50
2017-04-27T05:11:50.817Z,1.50
2017-04-27T05:14:17.894Z,1.50
2017-04-27T05:16:44.996Z,1.50
2017-04-27T05:19:12.021Z,1.50
2017-04-27T05:21:39.839Z,1.40
2017-04-27T05:24:06.827Z,1.40
2017-04-27T05:26:34.632Z,1.40
2017-04-27T05:29:01.645Z,1.40
2017-04-27T05:31:29.380Z,1.40
2017-04-27T05:33:56.435Z,1.50
2017-04-27T05:36:23.440Z,1.50
2017-04-27T05:38:50.470Z,1.60
2017-04-27T05:41:17.511Z,1.70
2017-04-27T05:43:44.538Z,1.70
2017-04-27T05:46:12.295Z,1.50
2017-04-27T05:48:39.279Z,1.50
2017-04-27T05:51:06.371Z,1.50
2017-04-27T05:53:33.420Z,1.50
2017-04-27T05:56:00.403Z,1.50
2017-04-27T05:58:27.445Z,1.50
2017-04-27T06:00:55.249Z,1.50
2017-04-27T06:03:22.277Z,1.50
2017-04-27T06:05:49.295Z,1.60
2017-04-27T06:08:17.104Z,1.60
2017-04-27T06:10:44.110Z,1.60
2017-04-27T06:13:11.846Z,1.60
2017-04-27T06:15:38.878Z,1.50
2017-04-27T06:18:05.968Z,1.50
2017-04-27T06:20:33.720Z,1.50
2017-04-27T06:23:01.523Z,1.60
2017-04-27T06:25:28.526Z,1.70
2017-04-27T06:27:55.551Z,1.70
2017-04-27T06:30:22.586Z,1.60
2017-04-27T06:32:49.608Z,1.70
2017-04-27T06:35:16.608Z,1.80
2017-04-27T06:37:43.699Z,1.80
2017-04-27T06:40:10.729Z,1.90
2017-04-27T06:42:37.722Z,1.60
2017-04-27T06:45:04.776Z,1.70
2017-04-27T06:47:31.780Z,1.80
2017-04-27T06:49:58.798Z,1.80
2017-04-27T06:52:26.566Z,1.80
2017-04-27T06:54:54.374Z,1.80
2017-04-27T06:57:21.407Z,1.80
2017-04-27T06:59:48.512Z,1.90
2017-04-27T07:02:15.520Z,1.90
2017-04-27T07:04:42.570Z,1.80
2017-04-27T07:07:09.631Z,1.80
2017-04-27T07:09:36.635Z,1.80
2017-04-27T07:12:03.698Z,1.80
2017-04-27T07:14:30.740Z,1.90
2017-04-27T07:16:57.780Z,2.00
2017-04-27T07:19:24.811Z,1.80
2017-04-27T07:21:51.783Z,1.90
2017-04-27T07:24:18.887Z,1.90
2017-04-27T07:26:45.899Z,1.90
2017-04-27T07:29:12.930Z,2.00
2017-04-27T07:31:39.942Z,2.00
2017-04-27T07:34:07.756Z,2.00
2017-04-27T07:36:34.784Z,2.10
2017-04-27T07:39:01.868Z,2.30
2017-04-27T07:41:28.938Z,2.30
2017-04-27T07:43:56.739Z,2.10
2017-04-27T07:46:23.780Z,2.00
2017-04-27T07:48:50.799Z,2.00
2017-04-27T07:51:18.509Z,2.00
2017-04-27T07:53:45.582Z,2.00
2017-04-27T07:56:12.665Z,1.90
2017-04-27T07:58:40.425Z,1.90
2017-04-27T08:01:08.202Z,1.80
2017-04-27T08:03:35.223Z,1.90
2017-04-27T08:06:02.278Z,2.00
2017-04-27T08:08:29.328Z,2.10
2017-04-27T08:10:57.112Z,2.00
2017-04-27T08:13:24.111Z,2.00
2017-04-27T08:15:51.158Z,1.80
2017-04-27T08:18:18.167Z,2.00
2017-04-27T08:20:45.191Z,2.00
2017-04-27T08:23:13.067Z,2.00
2017-04-27T08:25:40.043Z,2.10
2017-04-27T08:28:07.034Z,2.10
2017-04-27T08:30:34.843Z,2.00
2017-04-27T08:33:01.832Z,2.10
2017-04-27T08:35:28.863Z,2.20
2017-04-27T08:37:55.933Z,2.30
2017-04-27T08:40:23.700Z,2.30
2017-04-27T08:42:50.725Z,2.20
2017-04-27T08:45:17.763Z,2.20
2017-04-27T08:47:44.749Z,2.30
2017-04-27T08:50:12.554Z,2.20
2017-04-27T08:52:39.559Z,2.30
2017-04-27T08:55:07.347Z,2.40
2017-04-27T08:57:34.390Z,2.30
2017-04-27T09:00:01.392Z,2.40
2017-04-27T09:02:28.468Z,2.50
2017-04-27T09:04:56.215Z,2.20
2017-04-27T09:07:23.235Z,2.40
2017-04-27T09:09:50.301Z,2.40
2017-04-27T09:12:17.326Z,2.40
2017-04-27T09:14:44.366Z,2.40
2017-04-27T09:17:11.436Z,2.20
2017-04-27T09:19:38.533Z,2.10
2017-04-27T09:22:05.557Z,2.40
2017-04-27T09:24:33.295Z,2.60
2017-04-27T09:27:00.361Z,2.60
2017-04-27T09:29:27.386Z,2.70
2017-04-27T09:31:54.400Z,2.80
2017-04-27T09:34:21.455Z,2.80
2017-04-27T09:36:48.461Z,3.00
2017-04-27T09:39:16.261Z,3.00
2017-04-27T09:41:43.308Z,3.10
2017-04-27T09:44:10.297Z,2.90
2017-04-27T09:46:37.346Z,2.90
2017-04-27T09:49:04.350Z,2.90
2017-04-27T09:51:31.392Z,3.00
2017-04-27T09:53:58.416Z,3.10
2017-04-27T09:56:25.551Z,3.20
2017-04-27T09:58:53.285Z,3.30
2017-04-27T10:01:20.379Z,3.30
2017-04-27T10:03:47.408Z,3.10
2017-04-27T10:06:14.498Z,3.10
2017-04-27T10:08:41.563Z,3.20
2017-04-27T10:11:08.557Z,3.40
2017-04-27T10:13:36.292Z,3.40
2017-04-27T10:16:03.439Z,3.40
2017-04-27T10:18:30.471Z,3.40
2017-04-27T10:20:57.458Z,3.50
2017-04-27T10:23:24.563Z,3.40
2017-04-27T10:25:51.597Z,3.30
2017-04-27T10:28:18.620Z,3.30
2017-04-27T10:30:45.682Z,3.50
2017-04-27T10:33:12.695Z,3.60
2017-04-27T10:35:40.524Z,3.50
2017-04-27T10:38:07.593Z,3.60
2017-04-27T10:40:34.588Z,3.70
2017-04-27T10:43:01.636Z,3.70
2017-04-27T10:45:28.675Z,3.80
2017-04-27T10:47:55.674Z,3.90
2017-04-27T10:50:22.743Z,4.00
2017-04-27T10:52:49.734Z,4.00
2017-04-27T10:55:16.801Z,4.10
2017-04-27T10:57:43.847Z,3.80
2017-04-27T11:00:10.864Z,3.70
2017-04-27T11:02:37.888Z,3.50
2017-04-27T11:05:04.949Z,3.60
2017-04-27T11:07:31.936Z,3.20
2017-04-27T11:09:58.986Z,3.30
2017-04-27T11:12:26.008Z,3.60
2017-04-27T11:14:53.026Z,3.40
2017-04-27T11:17:20.110Z,3.60
2017-04-27T11:19:47.126Z,3.60
2017-04-27T11:22:14.177Z,3.80
2017-04-27T11:24:41.210Z,3.90
2017-04-27T11:27:08.211Z,3.80
2017-04-27T11:29:35.232Z,3.50
2017-04-27T11:32:02.275Z,3.50
2017-04-27T11:34:29.305Z,3.60
2017-04-27T11:36:56.324Z,3.60
2017-04-27T11:39:24.529Z,3.50
2017-04-27T11:41:51.523Z,3.60
2017-04-27T11:44:18.552Z,3.50
2017-04-27T11:46:45.634Z,3.50
2017-04-27T11:49:12.617Z,3.50
2017-04-27T11:51:39.681Z,3.50
2017-04-27T11:54:06.710Z,3.50
2017-04-27T11:56:33.738Z,3.60
2017-04-27T11:59:00.763Z,3.70
2017-04-27T12:01:28.576Z,3.50
2017-04-27T12:03:55.600Z,3.60
2017-04-27T12:06:22.674Z,3.70
2017-04-27T12:08:49.713Z,3.90
2017-04-27T12:11:16.733Z,4.00
2017-04-27T12:13:44.535Z,4.20
2017-04-27T12:16:11.546Z,4.50
2017-04-27T12:18:39.305Z,4.60
2017-04-27T12:21:07.101Z,4.70
2017-04-27T12:23:34.124Z,4.80
2017-04-27T12:26:01.137Z,4.80
2017-04-27T12:28:28.237Z,4.70
2017-04-27T12:30:55.272Z,4.70
2017-04-27T12:33:22.346Z,4.30
2017-04-27T12:35:49.409Z,3.90
2017-04-27T12:38:16.411Z,3.70
2017-04-27T12:40:43.455Z,3.70
2017-04-27T12:43:11.247Z,3.20
2017-04-27T12:45:38.280Z,3.40
2017-04-27T12:48:05.326Z,3.50
2017-04-27T12:50:32.398Z,3.60
2017-04-27T12:52:59.478Z,4.00
2017-04-27T12:55:26.495Z,4.30
2017-04-27T12:57:53.508Z,4.40
2017-04-27T13:00:20.592Z,4.30
2017-04-27T13:02:47.629Z,4.10
2017-04-27T13:05:14.670Z,3.90
2017-04-27T13:07:41.729Z,3.90
2017-04-27T13:10:08.757Z,3.90
2017-04-27T13:12:35.782Z,4.00
2017-04-27T13:15:03.582Z,4.20
2017-04-27T13:17:30.616Z,4.30
2017-04-27T13:19:57.688Z,4.40
2017-04-27T13:22:24.704Z,4.10
2017-04-27T13:24:51.793Z,4.20
2017-04-27T13:27:18.798Z,4.20
2017-04-27T13:29:45.812Z,4.30
2017-04-27T13:32:12.856Z,4.50
2017-04-27T13:34:40.622Z,4.40
2017-04-27T13:37:08.358Z,4.50
2017-04-27T13:39:35.463Z,4.50
2017-04-27T13:42:02.507Z,4.60
2017-04-27T13:44:29.538Z,4.50
2017-04-27T13:46:57.335Z,4.50
2017-04-27T13:49:24.332Z,4.30
2017-04-27T13:51:51.373Z,4.30
2017-04-27T13:54:18.435Z,4.40
2017-04-27T13:56:46.209Z,4.20
2017-04-27T13:59:13.969Z,4.20
2017-04-27T14:01:41.780Z,4.30
2017-04-27T14:04:08.821Z,4.40
2017-04-27T14:06:35.843Z,4.40
2017-04-27T14:09:03.023Z,4.50
2017-04-27T14:11:30.034Z,4.50
2017-04-27T14:13:57.785Z,4.50
2017-04-27T14:16:25.561Z,4.40
2017-04-27T14:18:53.338Z,4.40
2017-04-27T14:21:20.400Z,4.40
2017-04-27T14:23:47.429Z,4.50
2017-04-27T14:26:14.530Z,4.50
2017-04-27T14:28:41.577Z,4.30
2017-04-27T14:31:08.593Z,4.40
2017-04-27T14:33:35.644Z,4.40
2017-04-27T14:36:02.700Z,4.30
2017-04-27T14:38:29.710Z,4.20
2017-04-27T14:40:56.809Z,4.20
2017-04-27T14:43:23.849Z,4.20
2017-04-27T14:45:50.905Z,4.30
2017-04-27T14:48:17.967Z,4.20
2017-04-27T14:50:45.027Z,4.30
2017-04-27T14:53:12.867Z,4.30
2017-04-27T14:55:39.871Z,4.20
2017-04-27T14:58:06.909Z,4.00
2017-04-27T15:00:33.998Z,3.50
2017-04-27T15:03:01.012Z,3.60
2017-04-27T15:05:28.027Z,3.70
2017-04-27T15:07:55.828Z,3.80
2017-04-27T15:10:22.835Z,3.80
2017-04-27T15:12:50.348Z,3.90
2017-04-27T15:15:17.345Z,3.80
2017-04-27T15:17:45.103Z,3.80
2017-04-27T15:20:12.894Z,3.90
2017-04-27T15:22:39.926Z,3.70
2017-04-27T15:25:06.979Z,3.60
2017-04-27T15:27:33.969Z,3.70
2017-04-27T15:30:00.971Z,3.90
2017-04-27T15:32:28.025Z,3.90
2017-04-27T15:34:55.014Z,3.80
2017-04-27T15:37:22.055Z,3.80
2017-04-27T15:39:49.107Z,3.70
2017-04-27T15:42:16.139Z,3.60
2017-04-27T15:44:43.203Z,3.60
2017-04-27T15:47:10.254Z,3.50
2017-04-27T15:49:37.275Z,3.20
2017-04-27T15:52:04.280Z,3.30
2017-04-27T15:54:31.382Z,3.60
2017-04-27T15:56:58.451Z,3.80
2017-04-27T15:59:25.498Z,4.00
2017-04-27T16:01:52.658Z,3.80
2017-04-27T16:04:20.437Z,3.70
2017-04-27T16:06:48.188Z,3.50
2017-04-27T16:09:15.274Z,3.50
2017-04-27T16:11:42.347Z,3.60
2017-04-27T16:14:09.490Z,3.60
2017-04-27T16:16:36.502Z,3.60
2017-04-27T16:19:04.330Z,3.50
2017-04-27T16:21:31.394Z,3.70
2017-04-27T16:23:58.428Z,3.80
2017-04-27T16:26:25.465Z,3.50
2017-04-27T16:28:52.565Z,3.40
2017-04-27T16:31:19.916Z,3.50
2017-04-27T16:33:47.018Z,3.40
2017-04-27T16:36:14.072Z,3.60
2017-04-27T16:38:41.112Z,3.50
2017-04-27T16:41:08.164Z,3.60
2017-04-27T16:43:35.222Z,3.70
2017-04-27T16:46:02.259Z,3.60
2017-04-27T16:48:29.303Z,3.60
2017-04-27T16:50:56.394Z,3.50
2017-04-27T16:53:23.455Z,3.60
2017-04-27T16:55:50.495Z,3.50
2017-04-27T16:58:17.599Z,3.60
2017-04-27T17:00:44.640Z,3.60
2017-04-27T17:03:11.704Z,3.40
2017-04-27T17:05:38.807Z,3.40
2017-04-27T17:08:05.833Z,3.50
2017-04-27T17:10:33.007Z,3.60
2017-04-27T17:13:00.079Z,3.50
2017-04-27T17:15:27.120Z,3.60
2017-04-27T17:17:54.125Z,3.80
2017-04-27T17:20:21.175Z,3.70
2017-04-27T17:22:48.206Z,3.80
2017-04-27T17:25:15.305Z,3.80
2017-04-27T17:27:42.337Z,3.90
2017-04-27T17:30:09.397Z,4.00
2017-04-27T17:32:37.418Z,4.00
2017-04-27T17:35:04.463Z,4.00
2017-04-27T17:37:32.252Z,3.80
2017-04-27T17:39:59.361Z,3.90
2017-04-27T17:42:26.377Z,3.80
2017-04-27T17:44:53.446Z,3.90
2017-04-27T17:47:20.471Z,3.90
2017-04-27T17:49:47.510Z,3.80
2017-04-27T17:52:14.546Z,3.80
2017-04-27T17:54:41.597Z,3.90
2017-04-27T17:57:08.648Z,3.90
2017-04-27T17:59:35.722Z,3.70
2017-04-27T18:02:02.782Z,3.70
2017-04-27T18:04:29.807Z,3.70
2017-04-27T18:06:56.827Z,3.70
2017-04-27T18:09:23.877Z,3.70
2017-04-27T18:11:50.931Z,3.50
2017-04-27T18:14:18.092Z,3.40
2017-04-27T18:16:45.169Z,3.50
2017-04-27T18:19:12.183Z,3.40
2017-04-27T18:21:39.244Z,3.50
2017-04-27T18:24:06.255Z,3.30
2017-04-27T18:26:33.278Z,3.20
2017-04-27T18:29:00.342Z,3.20
2017-04-27T18:31:27.369Z,3.10
2017-04-27T18:33:55.118Z,3.00
2017-04-27T18:36:22.196Z,3.10
2017-04-27T18:38:49.252Z,3.20
2017-04-27T18:41:16.275Z,3.20
2017-04-27T18:43:43.348Z,3.10
2017-04-27T18:46:10.396Z,3.10
2017-04-27T18:48:37.392Z,3.00
2017-04-27T18:51:04.464Z,2.90
2017-04-27T18:53:32.286Z,3.00
2017-04-27T18:55:59.311Z,3.10
2017-04-27T18:58:26.349Z,3.10
2017-04-27T19:00:53.414Z,3.30
2017-04-27T19:03:20.455Z,3.30
2017-04-27T19:05:47.515Z,3.20
2017-04-27T19:08:14.563Z,2.80
2017-04-27T19:10:41.640Z,2.90
2017-04-27T19:13:09.460Z,3.10
2017-04-27T19:15:36.569Z,3.00
2017-04-27T19:18:03.595Z,3.10
2017-04-27T19:20:30.634Z,2.80
2017-04-27T19:22:57.686Z,2.80
2017-04-27T19:25:24.723Z,2.70
2017-04-27T19:27:51.763Z,2.80
2017-04-27T19:30:18.887Z,2.70
2017-04-27T19:32:45.891Z,2.80
2017-04-27T19:35:13.646Z,2.90
2017-04-27T19:37:40.786Z,2.80
2017-04-27T19:40:07.791Z,2.70
2017-04-27T19:42:34.825Z,2.70
2017-04-27T19:45:01.892Z,2.80
2017-04-27T19:47:28.908Z,2.80
2017-04-27T19:49:55.949Z,2.90
2017-04-27T19:52:23.802Z,3.00
2017-04-27T19:54:51.577Z,3.10
2017-04-27T19:57:19.328Z,3.00
2017-04-27T19:59:47.147Z,3.00
2017-04-27T20:02:14.176Z,3.10
2017-04-27T20:04:41.230Z,3.10
2017-04-27T20:07:08.388Z,3.10
2017-04-27T20:09:35.431Z,3.10
2017-04-27T20:12:02.458Z,3.00
2017-04-27T20:14:29.499Z,3.00
2017-04-27T20:16:56.547Z,3.10
2017-04-27T20:19:23.564Z,3.10
2017-04-27T20:21:50.619Z,3.10
2017-04-27T20:24:18.358Z,3.00
2017-04-27T20:26:45.367Z,3.00
2017-04-27T20:29:12.434Z,3.00
2017-04-27T20:31:39.481Z,3.00
2017-04-27T20:34:06.504Z,3.10
2017-04-27T20:36:33.573Z,3.10
2017-04-27T20:39:00.585Z,3.10
2017-04-27T20:41:27.614Z,3.10
2017-04-27T20:43:55.394Z,3.00
2017-04-27T20:46:22.431Z,3.20
2017-04-27T20:48:50.265Z,3.10
2017-04-27T20:51:17.270Z,3.10
2017-04-27T20:53:44.330Z,3.00
2017-04-27T20:56:11.413Z,3.00
2017-04-27T20:58:38.468Z,3.10
2017-04-27T21:01:05.605Z,3.10
2017-04-27T21:03:32.632Z,3.10
2017-04-27T21:05:59.663Z,3.10
2017-04-27T21:08:26.684Z,3.00
2017-04-27T21:10:53.755Z,3.00
2017-04-27T21:13:20.776Z,2.90
2017-04-27T21:15:47.070Z,2.90
2017-04-27T21:18:14.118Z,3.00
2017-04-27T21:20:41.137Z,3.00
2017-04-27T21:23:08.134Z,2.90
2017-04-27T21:25:35.906Z,3.00
2017-04-27T21:28:03.709Z,3.00
2017-04-27T21:30:30.708Z,3.00
2017-04-27T21:32:58.439Z,3.00
2017-04-27T21:35:25.491Z,3.10
2017-04-27T21:37:52.510Z,3.00
2017-04-27T21:40:19.508Z,3.00
2017-04-27T21:42:46.550Z,3.00
2017-04-27T21:45:13.540Z,3.00
2017-04-27T21:47:40.533Z,3.10
2017-04-27T21:50:07.576Z,3.10
2017-04-27T21:52:34.610Z,3.00
2017-04-27T21:55:01.669Z,3.00
2017-04-27T21:57:28.828Z,2.90
2017-04-27T21:59:55.881Z,2.90
2017-04-27T22:02:22.872Z,2.80
2017-04-27T22:04:49.981Z,2.90
2017-04-27T22:07:17.756Z,2.90
2017-04-27T22:09:45.495Z,2.90
2017-04-27T22:12:12.597Z,2.90
2017-04-27T22:14:39.607Z,2.90
2017-04-27T22:17:07.347Z,2.80
2017-04-27T22:19:34.395Z,2.80
2017-04-27T22:22:01.425Z,2.80
2017-04-27T22:24:28.495Z,2.80
2017-04-27T22:26:55.462Z,2.80
2017-04-27T22:29:23.217Z,2.60
2017-04-27T22:31:51.042Z,2.60
2017-04-27T22:34:18.099Z,2.60
2017-04-27T22:36:46.592Z,2.70
2017-04-27T22:39:13.610Z,2.70
2017-04-27T22:41:40.618Z,2.60
2017-04-27T22:44:07.639Z,2.50
2017-04-27T22:46:34.690Z,2.40
2017-04-27T22:49:01.728Z,2.40
2017-04-27T22:51:28.748Z,2.30
2017-04-27T22:53:55.824Z,2.30
2017-04-27T22:56:23.560Z,2.20
2017-04-27T22:58:50.594Z,2.20
2017-04-27T23:01:17.675Z,2.20
2017-04-27T23:03:44.689Z,2.20
2017-04-27T23:06:11.768Z,2.20
2017-04-27T23:08:38.857Z,2.30
2017-04-27T23:11:05.899Z,2.20
2017-04-27T23:13:33.680Z,2.30
2017-04-27T23:16:00.742Z,2.30
2017-04-27T23:18:27.835Z,2.20
2017-04-27T23:20:55.600Z,2.30
2017-04-27T23:23:22.630Z,2.20
2017-04-27T23:25:49.688Z,2.10
2017-04-27T23:28:16.711Z,2.20
2017-04-27T23:30:43.709Z,2.20
2017-04-27T23:33:10.748Z,2.20
2017-04-27T23:35:38.489Z,2.10
2017-04-27T23:38:05.490Z,2.20
2017-04-27T23:40:32.541Z,2.20
2017-04-27T23:42:59.552Z,2.20
2017-04-27T23:45:27.313Z,2.10
2017-04-27T23:47:55.089Z,2.10
2017-04-27T23:50:22.855Z,2.00
2017-04-27T23:52:49.880Z,2.10
2017-04-27T23:55:17.688Z,2.10
2017-04-27T23:57:44.723Z,2.00
